sensor_id;sensor_type;location;lat;lon;timestamp;P1;durP1;ratioP1;P2;durP2;ratioP2
10729;SDS011;5416;59.258;18.128;2022-08-02T00:00:28;4.50;;;4.40;;
10729;SDS011;5416;59.258;18.128;2022-08-02T00:02:55;4.03;;;3.92;;
10729;SDS011;5416;59.258;18.128;2022-08-02T00:05:22;4.28;;;4.18;;
10729;SDS011;5416;59.258;18.128;2022-08-02T00:07:51;4.30;;;4.20;;
10729;SDS011;5416;59.258;18.128;2022-08-02T00:10:18;4.00;;;3.90;;
10729;SDS011;5416;59.258;18.128;2022-08-02T00:12:45;4.20;;;4.10;;
10729;SDS011;5416;59.258;18.128;2022-08-02T00:15:13;4.53;;;4.40;;
10729;SDS011;5416;59.258;18.128;2022-08-02T00:17:40;4.30;;;4.20;;
10729;SDS011;5416;59.258;18.128;2022-08-02T00:20:07;4.72;;;4.53;;
10729;SDS011;5416;59.258;18.128;2022-08-02T00:22:36;3.72;;;3.63;;
10729;SDS011;5416;59.258;18.128;2022-08-02T00:25:05;4.78;;;4.57;;
10729;SDS011;5416;59.258;18.128;2022-08-02T00:27:32;3.95;;;3.85;;
10729;SDS011;5416;59.258;18.128;2022-08-02T00:30:00;4.50;;;4.40;;
10729;SDS011;5416;59.258;18.128;2022-08-02T00:32:27;4.43;;;4.32;;
10729;SDS011;5416;59.258;18.128;2022-08-02T00:34:54;4.22;;;4.13;;
10729;SDS011;5416;59.258;18.128;2022-08-02T00:37:21;4.25;;;4.15;;
10729;SDS011;5416;59.258;18.128;2022-08-02T00:39:49;3.95;;;3.85;;
10729;SDS011;5416;59.258;18.128;2022-08-02T00:42:17;4.00;;;3.90;;
10729;SDS011;5416;59.258;18.128;2022-08-02T00:44:45;3.80;;;3.70;;
10729;SDS011;5416;59.258;18.128;2022-08-02T00:47:12;4.53;;;4.43;;
10729;SDS011;5416;59.258;18.128;2022-08-02T00:49:39;3.80;;;3.70;;
10729;SDS011;5416;59.258;18.128;2022-08-02T00:52:06;4.32;;;4.22;;
10729;SDS011;5416;59.258;18.128;2022-08-02T00:54:34;4.10;;;4.00;;
10729;SDS011;5416;59.258;18.128;2022-08-02T00:57:01;4.55;;;4.45;;
10729;SDS011;5416;59.258;18.128;2022-08-02T00:59:30;4.40;;;4.30;;
10729;SDS011;5416;59.258;18.128;2022-08-02T01:01:57;4.20;;;4.10;;
10729;SDS011;5416;59.258;18.128;2022-08-02T01:04:26;4.28;;;4.18;;
10729;SDS011;5416;59.258;18.128;2022-08-02T01:06:53;4.00;;;3.90;;
10729;SDS011;5416;59.258;18.128;2022-08-02T01:09:20;4.28;;;4.18;;
10729;SDS011;5416;59.258;18.128;2022-08-02T01:11:48;4.30;;;4.20;;
10729;SDS011;5416;59.258;18.128;2022-08-02T01:14:15;4.35;;;4.25;;
10729;SDS011;5416;59.258;18.128;2022-08-02T01:16:45;4.35;;;4.25;;
10729;SDS011;5416;59.258;18.128;2022-08-02T01:19:19;4.05;;;3.95;;
10729;SDS011;5416;59.258;18.128;2022-08-02T01:21:53;4.38;;;4.28;;
10729;SDS011;5416;59.258;18.128;2022-08-02T01:24:36;3.90;;;3.80;;
10729;SDS011;5416;59.258;18.128;2022-08-02T01:27:14;4.55;;;4.45;;
10729;SDS011;5416;59.258;18.128;2022-08-02T01:29:49;3.88;;;3.78;;
10729;SDS011;5416;59.258;18.128;2022-08-02T01:32:18;4.68;;;4.53;;
10729;SDS011;5416;59.258;18.128;2022-08-02T01:34:50;3.92;;;3.83;;
10729;SDS011;5416;59.258;18.128;2022-08-02T01:37:21;4.35;;;4.25;;
10729;SDS011;5416;59.258;18.128;2022-08-02T01:39:50;4.03;;;3.93;;
10729;SDS011;5416;59.258;18.128;2022-08-02T01:42:17;4.38;;;4.28;;
10729;SDS011;5416;59.258;18.128;2022-08-02T01:44:45;4.57;;;4.43;;
10729;SDS011;5416;59.258;18.128;2022-08-02T01:47:14;4.10;;;4.00;;
10729;SDS011;5416;59.258;18.128;2022-08-02T01:49:43;4.90;;;4.70;;
10729;SDS011;5416;59.258;18.128;2022-08-02T01:52:11;4.80;;;4.60;;
10729;SDS011;5416;59.258;18.128;2022-08-02T01:54:49;4.20;;;4.10;;
10729;SDS011;5416;59.258;18.128;2022-08-02T01:57:18;4.77;;;4.57;;
10729;SDS011;5416;59.258;18.128;2022-08-02T01:59:46;4.28;;;4.18;;
10729;SDS011;5416;59.258;18.128;2022-08-02T02:02:16;4.55;;;4.45;;
10729;SDS011;5416;59.258;18.128;2022-08-02T02:04:44;4.47;;;4.38;;
10729;SDS011;5416;59.258;18.128;2022-08-02T02:07:12;3.93;;;3.83;;
10729;SDS011;5416;59.258;18.128;2022-08-02T02:09:41;4.40;;;4.30;;
10729;SDS011;5416;59.258;18.128;2022-08-02T02:12:08;4.38;;;4.28;;
10729;SDS011;5416;59.258;18.128;2022-08-02T02:14:38;4.63;;;4.50;;
10729;SDS011;5416;59.258;18.128;2022-08-02T02:17:05;4.35;;;4.25;;
10729;SDS011;5416;59.258;18.128;2022-08-02T02:19:35;4.05;;;3.95;;
10729;SDS011;5416;59.258;18.128;2022-08-02T02:22:03;4.93;;;4.72;;
10729;SDS011;5416;59.258;18.128;2022-08-02T02:24:31;4.40;;;4.30;;
10729;SDS011;5416;59.258;18.128;2022-08-02T02:26:59;4.15;;;4.05;;
10729;SDS011;5416;59.258;18.128;2022-08-02T02:29:27;4.37;;;4.27;;
10729;SDS011;5416;59.258;18.128;2022-08-02T02:31:55;4.15;;;4.05;;
10729;SDS011;5416;59.258;18.128;2022-08-02T02:34:25;4.20;;;4.10;;
10729;SDS011;5416;59.258;18.128;2022-08-02T02:36:55;4.90;;;4.70;;
10729;SDS011;5416;59.258;18.128;2022-08-02T02:39:22;4.05;;;3.95;;
10729;SDS011;5416;59.258;18.128;2022-08-02T02:41:51;4.47;;;4.38;;
10729;SDS011;5416;59.258;18.128;2022-08-02T02:44:19;4.63;;;4.47;;
10729;SDS011;5416;59.258;18.128;2022-08-02T02:46:48;3.80;;;3.70;;
10729;SDS011;5416;59.258;18.128;2022-08-02T02:49:16;4.70;;;4.55;;
10729;SDS011;5416;59.258;18.128;2022-08-02T02:51:43;4.10;;;4.00;;
10729;SDS011;5416;59.258;18.128;2022-08-02T02:54:13;4.00;;;3.90;;
10729;SDS011;5416;59.258;18.128;2022-08-02T02:56:41;4.32;;;4.22;;
10729;SDS011;5416;59.258;18.128;2022-08-02T02:59:10;4.20;;;4.10;;
10729;SDS011;5416;59.258;18.128;2022-08-02T03:01:39;4.80;;;4.60;;
10729;SDS011;5416;59.258;18.128;2022-08-02T03:04:06;3.85;;;3.75;;
10729;SDS011;5416;59.258;18.128;2022-08-02T03:06:35;3.90;;;3.80;;
10729;SDS011;5416;59.258;18.128;2022-08-02T03:09:03;4.68;;;4.50;;
10729;SDS011;5416;59.258;18.128;2022-08-02T03:11:32;3.58;;;3.47;;
10729;SDS011;5416;59.258;18.128;2022-08-02T03:14:01;4.13;;;4.03;;
10729;SDS011;5416;59.258;18.128;2022-08-02T03:16:29;4.50;;;4.40;;
10729;SDS011;5416;59.258;18.128;2022-08-02T03:18:57;3.90;;;3.80;;
10729;SDS011;5416;59.258;18.128;2022-08-02T03:21:27;4.78;;;4.57;;
10729;SDS011;5416;59.258;18.128;2022-08-02T03:23:55;3.80;;;3.70;;
10729;SDS011;5416;59.258;18.128;2022-08-02T03:26:22;4.10;;;4.00;;
10729;SDS011;5416;59.258;18.128;2022-08-02T03:28:51;4.22;;;4.13;;
10729;SDS011;5416;59.258;18.128;2022-08-02T03:31:18;4.10;;;4.00;;
10729;SDS011;5416;59.258;18.128;2022-08-02T03:33:45;4.80;;;4.60;;
10729;SDS011;5416;59.258;18.128;2022-08-02T03:36:14;3.80;;;3.70;;
10729;SDS011;5416;59.258;18.128;2022-08-02T03:38:42;4.22;;;4.13;;
10729;SDS011;5416;59.258;18.128;2022-08-02T03:41:10;4.13;;;4.03;;
10729;SDS011;5416;59.258;18.128;2022-08-02T03:43:38;3.90;;;3.80;;
10729;SDS011;5416;59.258;18.128;2022-08-02T03:46:09;4.18;;;4.07;;
10729;SDS011;5416;59.258;18.128;2022-08-02T03:48:37;4.22;;;4.13;;
10729;SDS011;5416;59.258;18.128;2022-08-02T03:51:04;4.20;;;4.10;;
10729;SDS011;5416;59.258;18.128;2022-08-02T03:53:32;4.40;;;4.30;;
10729;SDS011;5416;59.258;18.128;2022-08-02T03:56:00;4.15;;;4.05;;
10729;SDS011;5416;59.258;18.128;2022-08-02T03:58:27;4.47;;;4.38;;
10729;SDS011;5416;59.258;18.128;2022-08-02T04:00:55;4.13;;;4.03;;
10729;SDS011;5416;59.258;18.128;2022-08-02T04:03:27;4.38;;;4.28;;
10729;SDS011;5416;59.258;18.128;2022-08-02T04:05:54;4.30;;;4.20;;
10729;SDS011;5416;59.258;18.128;2022-08-02T04:08:21;4.10;;;4.00;;
10729;SDS011;5416;59.258;18.128;2022-08-02T04:10:49;4.20;;;4.10;;
10729;SDS011;5416;59.258;18.128;2022-08-02T04:13:34;4.10;;;4.00;;
10729;SDS011;5416;59.258;18.128;2022-08-02T04:16:03;4.33;;;4.23;;
10729;SDS011;5416;59.258;18.128;2022-08-02T04:18:33;3.70;;;3.60;;
10729;SDS011;5416;59.258;18.128;2022-08-02T04:21:02;4.30;;;4.20;;
10729;SDS011;5416;59.258;18.128;2022-08-02T04:23:30;4.07;;;3.97;;
10729;SDS011;5416;59.258;18.128;2022-08-02T04:25:59;3.78;;;3.67;;
10729;SDS011;5416;59.258;18.128;2022-08-02T04:28:27;4.40;;;4.30;;
10729;SDS011;5416;59.258;18.128;2022-08-02T04:30:55;3.90;;;3.80;;
10729;SDS011;5416;59.258;18.128;2022-08-02T04:33:22;4.47;;;4.38;;
10729;SDS011;5416;59.258;18.128;2022-08-02T04:35:51;4.07;;;3.97;;
10729;SDS011;5416;59.258;18.128;2022-08-02T04:38:19;4.30;;;4.20;;
10729;SDS011;5416;59.258;18.128;2022-08-02T04:40:49;4.30;;;4.20;;
10729;SDS011;5416;59.258;18.128;2022-08-02T04:43:17;4.03;;;3.92;;
10729;SDS011;5416;59.258;18.128;2022-08-02T04:45:44;4.38;;;4.28;;
10729;SDS011;5416;59.258;18.128;2022-08-02T04:48:12;4.28;;;4.18;;
10729;SDS011;5416;59.258;18.128;2022-08-02T04:50:40;4.32;;;4.22;;
10729;SDS011;5416;59.258;18.128;2022-08-02T04:53:09;4.63;;;4.50;;
10729;SDS011;5416;59.258;18.128;2022-08-02T04:55:36;3.92;;;3.83;;
10729;SDS011;5416;59.258;18.128;2022-08-02T04:58:03;3.95;;;3.85;;
10729;SDS011;5416;59.258;18.128;2022-08-02T05:00:30;4.97;;;4.78;;
10729;SDS011;5416;59.258;18.128;2022-08-02T05:02:58;4.25;;;4.15;;
10729;SDS011;5416;59.258;18.128;2022-08-02T05:05:26;4.22;;;4.13;;
10729;SDS011;5416;59.258;18.128;2022-08-02T05:07:53;4.30;;;4.20;;
10729;SDS011;5416;59.258;18.128;2022-08-02T05:10:22;4.15;;;4.05;;
10729;SDS011;5416;59.258;18.128;2022-08-02T05:12:50;4.25;;;4.15;;
10729;SDS011;5416;59.258;18.128;2022-08-02T05:15:17;4.70;;;4.53;;
10729;SDS011;5416;59.258;18.128;2022-08-02T05:17:45;3.92;;;3.83;;
10729;SDS011;5416;59.258;18.128;2022-08-02T05:20:12;4.50;;;4.40;;
10729;SDS011;5416;59.258;18.128;2022-08-02T05:22:39;4.90;;;4.70;;
10729;SDS011;5416;59.258;18.128;2022-08-02T05:25:07;4.50;;;4.40;;
10729;SDS011;5416;59.258;18.128;2022-08-02T05:27:36;4.47;;;4.38;;
10729;SDS011;5416;59.258;18.128;2022-08-02T05:30:04;4.95;;;4.75;;
10729;SDS011;5416;59.258;18.128;2022-08-02T05:32:31;4.25;;;4.15;;
10729;SDS011;5416;59.258;18.128;2022-08-02T05:34:59;4.00;;;3.90;;
10729;SDS011;5416;59.258;18.128;2022-08-02T05:37:26;4.15;;;4.05;;
10729;SDS011;5416;59.258;18.128;2022-08-02T05:39:54;4.67;;;4.50;;
10729;SDS011;5416;59.258;18.128;2022-08-02T05:42:21;4.28;;;4.18;;
10729;SDS011;5416;59.258;18.128;2022-08-02T05:44:50;4.15;;;4.05;;
10729;SDS011;5416;59.258;18.128;2022-08-02T05:47:17;4.50;;;4.40;;
10729;SDS011;5416;59.258;18.128;2022-08-02T05:49:44;4.60;;;4.45;;
10729;SDS011;5416;59.258;18.128;2022-08-02T05:52:14;4.35;;;4.25;;
10729;SDS011;5416;59.258;18.128;2022-08-02T05:54:46;3.85;;;3.75;;
10729;SDS011;5416;59.258;18.128;2022-08-02T05:57:16;3.97;;;3.88;;
10729;SDS011;5416;59.258;18.128;2022-08-02T05:59:46;4.30;;;4.20;;
10729;SDS011;5416;59.258;18.128;2022-08-02T06:02:16;4.47;;;4.38;;
10729;SDS011;5416;59.258;18.128;2022-08-02T06:04:48;4.55;;;4.45;;
10729;SDS011;5416;59.258;18.128;2022-08-02T06:07:17;4.53;;;4.43;;
10729;SDS011;5416;59.258;18.128;2022-08-02T06:09:45;3.85;;;3.75;;
10729;SDS011;5416;59.258;18.128;2022-08-02T06:12:14;4.30;;;4.20;;
10729;SDS011;5416;59.258;18.128;2022-08-02T06:14:42;4.35;;;4.25;;
10729;SDS011;5416;59.258;18.128;2022-08-02T06:17:09;4.38;;;4.28;;
10729;SDS011;5416;59.258;18.128;2022-08-02T06:19:38;4.40;;;4.30;;
10729;SDS011;5416;59.258;18.128;2022-08-02T06:22:06;4.90;;;4.70;;
10729;SDS011;5416;59.258;18.128;2022-08-02T06:24:41;4.32;;;4.22;;
10729;SDS011;5416;59.258;18.128;2022-08-02T06:27:09;4.10;;;4.00;;
10729;SDS011;5416;59.258;18.128;2022-08-02T06:29:37;4.55;;;4.45;;
10729;SDS011;5416;59.258;18.128;2022-08-02T06:32:04;4.10;;;4.00;;
10729;SDS011;5416;59.258;18.128;2022-08-02T06:34:34;4.13;;;4.03;;
10729;SDS011;5416;59.258;18.128;2022-08-02T06:37:05;4.40;;;4.30;;
10729;SDS011;5416;59.258;18.128;2022-08-02T06:39:38;4.40;;;4.30;;
10729;SDS011;5416;59.258;18.128;2022-08-02T06:42:10;4.15;;;4.05;;
10729;SDS011;5416;59.258;18.128;2022-08-02T06:44:38;4.25;;;4.15;;
10729;SDS011;5416;59.258;18.128;2022-08-02T06:47:05;4.13;;;4.03;;
10729;SDS011;5416;59.258;18.128;2022-08-02T06:49:33;4.22;;;4.13;;
10729;SDS011;5416;59.258;18.128;2022-08-02T06:52:01;4.27;;;4.17;;
10729;SDS011;5416;59.258;18.128;2022-08-02T06:54:30;3.92;;;3.83;;
10729;SDS011;5416;59.258;18.128;2022-08-02T06:56:58;4.13;;;4.03;;
10729;SDS011;5416;59.258;18.128;2022-08-02T06:59:25;4.20;;;4.10;;
10729;SDS011;5416;59.258;18.128;2022-08-02T07:01:53;4.10;;;4.00;;
10729;SDS011;5416;59.258;18.128;2022-08-02T07:04:21;4.30;;;4.20;;
10729;SDS011;5416;59.258;18.128;2022-08-02T07:06:48;4.23;;;4.13;;
10729;SDS011;5416;59.258;18.128;2022-08-02T07:09:16;4.20;;;4.10;;
10729;SDS011;5416;59.258;18.128;2022-08-02T07:11:44;4.63;;;4.50;;
10729;SDS011;5416;59.258;18.128;2022-08-02T07:14:12;3.97;;;3.88;;
10729;SDS011;5416;59.258;18.128;2022-08-02T07:16:39;3.97;;;3.87;;
10729;SDS011;5416;59.258;18.128;2022-08-02T07:19:06;3.75;;;3.65;;
10729;SDS011;5416;59.258;18.128;2022-08-02T07:21:34;4.18;;;4.07;;
10729;SDS011;5416;59.258;18.128;2022-08-02T07:24:01;4.30;;;4.20;;
10729;SDS011;5416;59.258;18.128;2022-08-02T07:26:28;3.90;;;3.80;;
10729;SDS011;5416;59.258;18.128;2022-08-02T07:28:57;3.70;;;3.60;;
10729;SDS011;5416;59.258;18.128;2022-08-02T07:31:24;3.80;;;3.70;;
10729;SDS011;5416;59.258;18.128;2022-08-02T07:33:51;4.10;;;4.00;;
10729;SDS011;5416;59.258;18.128;2022-08-02T07:36:19;3.90;;;3.80;;
10729;SDS011;5416;59.258;18.128;2022-08-02T07:38:46;4.07;;;3.97;;
10729;SDS011;5416;59.258;18.128;2022-08-02T07:41:14;3.40;;;3.30;;
10729;SDS011;5416;59.258;18.128;2022-08-02T07:43:41;3.47;;;3.38;;
10729;SDS011;5416;59.258;18.128;2022-08-02T07:46:10;3.40;;;3.30;;
10729;SDS011;5416;59.258;18.128;2022-08-02T07:48:37;3.15;;;3.05;;
10729;SDS011;5416;59.258;18.128;2022-08-02T07:51:04;3.10;;;3.00;;
10729;SDS011;5416;59.258;18.128;2022-08-02T07:53:31;2.65;;;2.55;;
10729;SDS011;5416;59.258;18.128;2022-08-02T07:55:59;2.90;;;2.80;;
10729;SDS011;5416;59.258;18.128;2022-08-02T07:58:26;2.83;;;2.72;;
10729;SDS011;5416;59.258;18.128;2022-08-02T08:00:53;2.80;;;2.70;;
10729;SDS011;5416;59.258;18.128;2022-08-02T08:03:22;2.90;;;2.80;;
10729;SDS011;5416;59.258;18.128;2022-08-02T08:05:49;2.85;;;2.75;;
10729;SDS011;5416;59.258;18.128;2022-08-02T08:08:18;2.80;;;2.70;;
10729;SDS011;5416;59.258;18.128;2022-08-02T08:10:45;2.70;;;2.60;;
10729;SDS011;5416;59.258;18.128;2022-08-02T08:13:13;2.50;;;2.40;;
10729;SDS011;5416;59.258;18.128;2022-08-02T08:15:40;2.47;;;2.38;;
10729;SDS011;5416;59.258;18.128;2022-08-02T08:18:07;2.30;;;2.20;;
10729;SDS011;5416;59.258;18.128;2022-08-02T08:20:37;2.40;;;2.30;;
10729;SDS011;5416;59.258;18.128;2022-08-02T08:23:04;2.10;;;2.10;;
10729;SDS011;5416;59.258;18.128;2022-08-02T08:25:32;1.90;;;1.90;;
10729;SDS011;5416;59.258;18.128;2022-08-02T08:27:59;2.00;;;2.00;;
10729;SDS011;5416;59.258;18.128;2022-08-02T08:30:26;1.80;;;1.80;;
10729;SDS011;5416;59.258;18.128;2022-08-02T08:32:53;1.77;;;1.77;;
10729;SDS011;5416;59.258;18.128;2022-08-02T08:35:21;1.80;;;1.80;;
10729;SDS011;5416;59.258;18.128;2022-08-02T08:37:49;1.83;;;1.83;;
10729;SDS011;5416;59.258;18.128;2022-08-02T08:40:17;1.90;;;1.90;;
10729;SDS011;5416;59.258;18.128;2022-08-02T08:42:44;1.90;;;1.90;;
10729;SDS011;5416;59.258;18.128;2022-08-02T08:45:11;2.00;;;2.00;;
10729;SDS011;5416;59.258;18.128;2022-08-02T08:47:39;2.10;;;2.10;;
10729;SDS011;5416;59.258;18.128;2022-08-02T08:50:08;2.40;;;2.30;;
10729;SDS011;5416;59.258;18.128;2022-08-02T08:52:39;2.40;;;2.30;;
10729;SDS011;5416;59.258;18.128;2022-08-02T08:55:09;2.20;;;2.10;;
10729;SDS011;5416;59.258;18.128;2022-08-02T08:57:37;2.08;;;2.00;;
10729;SDS011;5416;59.258;18.128;2022-08-02T09:00:06;2.30;;;2.20;;
10729;SDS011;5416;59.258;18.128;2022-08-02T09:02:34;2.00;;;2.00;;
10729;SDS011;5416;59.258;18.128;2022-08-02T09:05:02;1.80;;;1.80;;
10729;SDS011;5416;59.258;18.128;2022-08-02T09:07:29;1.80;;;1.80;;
10729;SDS011;5416;59.258;18.128;2022-08-02T09:09:57;1.70;;;1.70;;
10729;SDS011;5416;59.258;18.128;2022-08-02T09:12:25;2.00;;;2.00;;
10729;SDS011;5416;59.258;18.128;2022-08-02T09:14:52;1.90;;;1.90;;
10729;SDS011;5416;59.258;18.128;2022-08-02T09:17:20;1.85;;;1.85;;
10729;SDS011;5416;59.258;18.128;2022-08-02T09:19:47;1.70;;;1.70;;
10729;SDS011;5416;59.258;18.128;2022-08-02T09:22:32;1.65;;;1.65;;
10729;SDS011;5416;59.258;18.128;2022-08-02T09:24:59;1.60;;;1.60;;
10729;SDS011;5416;59.258;18.128;2022-08-02T09:27:28;1.60;;;1.60;;
10729;SDS011;5416;59.258;18.128;2022-08-02T09:30:02;1.70;;;1.70;;
10729;SDS011;5416;59.258;18.128;2022-08-02T09:32:39;1.80;;;1.80;;
10729;SDS011;5416;59.258;18.128;2022-08-02T09:35:10;1.90;;;1.90;;
10729;SDS011;5416;59.258;18.128;2022-08-02T09:37:38;1.73;;;1.73;;
10729;SDS011;5416;59.258;18.128;2022-08-02T09:40:05;1.80;;;1.80;;
10729;SDS011;5416;59.258;18.128;2022-08-02T09:42:36;1.90;;;1.90;;
10729;SDS011;5416;59.258;18.128;2022-08-02T09:45:03;1.80;;;1.80;;
10729;SDS011;5416;59.258;18.128;2022-08-02T09:47:31;2.00;;;2.00;;
10729;SDS011;5416;59.258;18.128;2022-08-02T09:49:58;1.90;;;1.90;;
10729;SDS011;5416;59.258;18.128;2022-08-02T09:52:26;1.92;;;1.92;;
10729;SDS011;5416;59.258;18.128;2022-08-02T09:54:53;2.13;;;2.08;;
10729;SDS011;5416;59.258;18.128;2022-08-02T09:57:23;2.20;;;2.10;;
10729;SDS011;5416;59.258;18.128;2022-08-02T09:59:53;2.00;;;2.00;;
10729;SDS011;5416;59.258;18.128;2022-08-02T10:02:21;1.80;;;1.80;;
10729;SDS011;5416;59.258;18.128;2022-08-02T10:04:48;1.90;;;1.90;;
10729;SDS011;5416;59.258;18.128;2022-08-02T10:07:15;1.90;;;1.90;;
10729;SDS011;5416;59.258;18.128;2022-08-02T10:09:43;1.90;;;1.90;;
10729;SDS011;5416;59.258;18.128;2022-08-02T10:12:11;1.95;;;1.95;;
10729;SDS011;5416;59.258;18.128;2022-08-02T10:14:38;1.90;;;1.90;;
10729;SDS011;5416;59.258;18.128;2022-08-02T10:17:07;1.90;;;1.90;;
10729;SDS011;5416;59.258;18.128;2022-08-02T10:19:35;1.95;;;1.95;;
10729;SDS011;5416;59.258;18.128;2022-08-02T10:22:03;2.13;;;2.03;;
10729;SDS011;5416;59.258;18.128;2022-08-02T10:24:30;2.17;;;2.10;;
10729;SDS011;5416;59.258;18.128;2022-08-02T10:26:58;2.10;;;2.10;;
10729;SDS011;5416;59.258;18.128;2022-08-02T10:29:26;2.00;;;2.00;;
10729;SDS011;5416;59.258;18.128;2022-08-02T10:31:56;2.13;;;2.05;;
10729;SDS011;5416;59.258;18.128;2022-08-02T10:34:28;1.90;;;1.90;;
10729;SDS011;5416;59.258;18.128;2022-08-02T10:36:57;2.20;;;2.10;;
10729;SDS011;5416;59.258;18.128;2022-08-02T10:39:27;2.50;;;2.40;;
10729;SDS011;5416;59.258;18.128;2022-08-02T10:41:54;2.35;;;2.25;;
10729;SDS011;5416;59.258;18.128;2022-08-02T10:44:22;2.40;;;2.30;;
10729;SDS011;5416;59.258;18.128;2022-08-02T10:46:51;2.30;;;2.20;;
10729;SDS011;5416;59.258;18.128;2022-08-02T10:49:19;2.15;;;2.10;;
10729;SDS011;5416;59.258;18.128;2022-08-02T10:51:58;2.30;;;2.20;;
10729;SDS011;5416;59.258;18.128;2022-08-02T10:54:32;2.37;;;2.27;;
10729;SDS011;5416;59.258;18.128;2022-08-02T10:56:59;2.50;;;2.40;;
10729;SDS011;5416;59.258;18.128;2022-08-02T10:59:28;3.00;;;2.90;;
10729;SDS011;5416;59.258;18.128;2022-08-02T11:01:56;2.83;;;2.72;;
10729;SDS011;5416;59.258;18.128;2022-08-02T11:04:27;3.13;;;3.03;;
10729;SDS011;5416;59.258;18.128;2022-08-02T11:07:09;3.47;;;3.38;;
10729;SDS011;5416;59.258;18.128;2022-08-02T11:09:38;3.38;;;3.28;;
10729;SDS011;5416;59.258;18.128;2022-08-02T11:12:06;3.50;;;3.40;;
10729;SDS011;5416;59.258;18.128;2022-08-02T11:14:35;3.30;;;3.20;;
10729;SDS011;5416;59.258;18.128;2022-08-02T11:17:06;3.57;;;3.47;;
10729;SDS011;5416;59.258;18.128;2022-08-02T11:19:34;3.35;;;3.25;;
10729;SDS011;5416;59.258;18.128;2022-08-02T11:22:03;3.20;;;3.10;;
10729;SDS011;5416;59.258;18.128;2022-08-02T11:24:33;3.53;;;3.42;;
10729;SDS011;5416;59.258;18.128;2022-08-02T11:27:00;3.40;;;3.30;;
10729;SDS011;5416;59.258;18.128;2022-08-02T11:29:32;3.22;;;3.13;;
10729;SDS011;5416;59.258;18.128;2022-08-02T11:31:59;3.40;;;3.30;;
10729;SDS011;5416;59.258;18.128;2022-08-02T11:34:27;3.27;;;3.17;;
10729;SDS011;5416;59.258;18.128;2022-08-02T11:36:54;3.63;;;3.53;;
10729;SDS011;5416;59.258;18.128;2022-08-02T11:39:22;3.55;;;3.45;;
10729;SDS011;5416;59.258;18.128;2022-08-02T11:41:51;3.72;;;3.63;;
10729;SDS011;5416;59.258;18.128;2022-08-02T11:44:18;3.75;;;3.65;;
10729;SDS011;5416;59.258;18.128;2022-08-02T11:46:52;3.70;;;3.60;;
10729;SDS011;5416;59.258;18.128;2022-08-02T11:49:19;3.88;;;3.78;;
10729;SDS011;5416;59.258;18.128;2022-08-02T11:51:50;3.90;;;3.80;;
10729;SDS011;5416;59.258;18.128;2022-08-02T11:54:21;4.00;;;3.90;;
10729;SDS011;5416;59.258;18.128;2022-08-02T11:56:48;3.80;;;3.70;;
10729;SDS011;5416;59.258;18.128;2022-08-02T11:59:17;3.47;;;3.38;;
10729;SDS011;5416;59.258;18.128;2022-08-02T12:01:45;3.70;;;3.60;;
10729;SDS011;5416;59.258;18.128;2022-08-02T12:04:15;3.70;;;3.60;;
10729;SDS011;5416;59.258;18.128;2022-08-02T12:06:42;3.70;;;3.60;;
10729;SDS011;5416;59.258;18.128;2022-08-02T12:09:11;3.80;;;3.70;;
10729;SDS011;5416;59.258;18.128;2022-08-02T12:11:38;3.70;;;3.60;;
10729;SDS011;5416;59.258;18.128;2022-08-02T12:14:07;3.70;;;3.60;;
10729;SDS011;5416;59.258;18.128;2022-08-02T12:16:37;3.58;;;3.47;;
10729;SDS011;5416;59.258;18.128;2022-08-02T12:19:23;3.85;;;3.75;;
10729;SDS011;5416;59.258;18.128;2022-08-02T12:22:07;3.70;;;3.60;;
10729;SDS011;5416;59.258;18.128;2022-08-02T12:24:35;4.10;;;4.00;;
10729;SDS011;5416;59.258;18.128;2022-08-02T12:27:02;4.47;;;4.38;;
10729;SDS011;5416;59.258;18.128;2022-08-02T12:29:30;4.03;;;3.92;;
10729;SDS011;5416;59.258;18.128;2022-08-02T12:32:00;4.22;;;4.13;;
10729;SDS011;5416;59.258;18.128;2022-08-02T12:34:28;4.43;;;4.33;;
10729;SDS011;5416;59.258;18.128;2022-08-02T12:36:56;4.28;;;4.18;;
10729;SDS011;5416;59.258;18.128;2022-08-02T12:39:32;4.43;;;4.32;;
10729;SDS011;5416;59.258;18.128;2022-08-02T12:42:00;4.07;;;3.97;;
10729;SDS011;5416;59.258;18.128;2022-08-02T12:44:27;4.28;;;4.18;;
10729;SDS011;5416;59.258;18.128;2022-08-02T12:46:57;4.40;;;4.30;;
10729;SDS011;5416;59.258;18.128;2022-08-02T12:49:26;4.43;;;4.32;;
10729;SDS011;5416;59.258;18.128;2022-08-02T12:51:54;4.32;;;4.22;;
10729;SDS011;5416;59.258;18.128;2022-08-02T12:54:21;4.30;;;4.20;;
10729;SDS011;5416;59.258;18.128;2022-08-02T12:56:49;4.37;;;4.27;;
10729;SDS011;5416;59.258;18.128;2022-08-02T12:59:31;4.35;;;4.25;;
10729;SDS011;5416;59.258;18.128;2022-08-02T13:02:00;4.35;;;4.25;;
10729;SDS011;5416;59.258;18.128;2022-08-02T13:04:29;4.55;;;4.45;;
10729;SDS011;5416;59.258;18.128;2022-08-02T13:06:56;3.95;;;3.85;;
10729;SDS011;5416;59.258;18.128;2022-08-02T13:09:24;4.57;;;4.47;;
10729;SDS011;5416;59.258;18.128;2022-08-02T13:11:51;4.35;;;4.25;;
10729;SDS011;5416;59.258;18.128;2022-08-02T13:14:18;4.25;;;4.15;;
10729;SDS011;5416;59.258;18.128;2022-08-02T13:16:46;4.25;;;4.15;;
10729;SDS011;5416;59.258;18.128;2022-08-02T13:19:13;4.05;;;3.95;;
10729;SDS011;5416;59.258;18.128;2022-08-02T13:21:43;4.10;;;4.00;;
10729;SDS011;5416;59.258;18.128;2022-08-02T13:24:10;4.28;;;4.18;;
10729;SDS011;5416;59.258;18.128;2022-08-02T13:26:40;4.28;;;4.18;;
10729;SDS011;5416;59.258;18.128;2022-08-02T13:29:07;4.20;;;4.10;;
10729;SDS011;5416;59.258;18.128;2022-08-02T13:31:35;4.80;;;4.60;;
10729;SDS011;5416;59.258;18.128;2022-08-02T13:34:03;4.10;;;4.00;;
10729;SDS011;5416;59.258;18.128;2022-08-02T13:36:30;4.45;;;4.35;;
10729;SDS011;5416;59.258;18.128;2022-08-02T13:39:00;4.78;;;4.57;;
10729;SDS011;5416;59.258;18.128;2022-08-02T13:41:28;4.43;;;4.32;;
10729;SDS011;5416;59.258;18.128;2022-08-02T13:43:55;4.65;;;4.47;;
10729;SDS011;5416;59.258;18.128;2022-08-02T13:46:22;4.03;;;3.92;;
10729;SDS011;5416;59.258;18.128;2022-08-02T13:48:49;4.57;;;4.47;;
10729;SDS011;5416;59.258;18.128;2022-08-02T13:51:17;4.32;;;4.22;;
10729;SDS011;5416;59.258;18.128;2022-08-02T13:53:44;4.93;;;4.72;;
10729;SDS011;5416;59.258;18.128;2022-08-02T13:56:13;4.45;;;4.35;;
10729;SDS011;5416;59.258;18.128;2022-08-02T13:58:40;4.80;;;4.60;;
10729;SDS011;5416;59.258;18.128;2022-08-02T14:01:07;4.70;;;4.50;;
10729;SDS011;5416;59.258;18.128;2022-08-02T14:03:34;4.78;;;4.57;;
10729;SDS011;5416;59.258;18.128;2022-08-02T14:06:02;4.72;;;4.55;;
10729;SDS011;5416;59.258;18.128;2022-08-02T14:08:31;4.70;;;4.50;;
10729;SDS011;5416;59.258;18.128;2022-08-02T14:10:58;4.50;;;4.40;;
10729;SDS011;5416;59.258;18.128;2022-08-02T14:13:26;4.07;;;3.97;;
10729;SDS011;5416;59.258;18.128;2022-08-02T14:15:54;4.43;;;4.32;;
10729;SDS011;5416;59.258;18.128;2022-08-02T14:18:23;4.20;;;4.10;;
10729;SDS011;5416;59.258;18.128;2022-08-02T14:20:50;4.45;;;4.35;;
10729;SDS011;5416;59.258;18.128;2022-08-02T14:23:18;4.82;;;4.63;;
10729;SDS011;5416;59.258;18.128;2022-08-02T14:25:45;4.50;;;4.40;;
10729;SDS011;5416;59.258;18.128;2022-08-02T14:28:12;4.45;;;4.35;;
10729;SDS011;5416;59.258;18.128;2022-08-02T14:30:41;4.35;;;4.25;;
10729;SDS011;5416;59.258;18.128;2022-08-02T14:33:08;4.90;;;4.70;;
10729;SDS011;5416;59.258;18.128;2022-08-02T14:35:36;4.80;;;4.60;;
10729;SDS011;5416;59.258;18.128;2022-08-02T14:38:03;5.00;;;4.80;;
10729;SDS011;5416;59.258;18.128;2022-08-02T14:40:31;5.10;;;4.90;;
10729;SDS011;5416;59.258;18.128;2022-08-02T14:42:58;4.80;;;4.60;;
10729;SDS011;5416;59.258;18.128;2022-08-02T14:45:26;4.47;;;4.37;;
10729;SDS011;5416;59.258;18.128;2022-08-02T14:47:55;4.93;;;4.72;;
10729;SDS011;5416;59.258;18.128;2022-08-02T14:50:23;4.70;;;4.50;;
10729;SDS011;5416;59.258;18.128;2022-08-02T14:52:50;4.82;;;4.63;;
10729;SDS011;5416;59.258;18.128;2022-08-02T14:55:17;4.70;;;4.50;;